Flight Track Log - Related Links

Times and Time Zones

All times are in EDT time to prevent confusion due to time zone crossing. See the CJC4861 flight status page for this flight to view local times or setup timezone preferences in your user account.

Time Position Orientation Groundspeed Altitude Reporting Facility
EDT Latitude Longitude Course Direction KTS MPH feet Rate Location/Type
Sat 03:39:15 PM 40.7150 -74.1647 198° South  Level FlightAware Approximate
Sat 03:39:51 PM 40.6333 -74.2000 288° West 208 239 2,900  Level New York TRACON
Sat 03:40:45 PM 40.6500 -74.2667 333° Northwest 210 242 5,100 1,603 Climbing New York TRACON
Sat 03:41:47 PM 40.7000 -74.3000 360° North 239 275 6,000 450 Climbing New York TRACON
Sat 03:42:45 PM 40.7667 -74.3000 17° North 267 307 6,000  Level New York TRACON
Sat 03:43:45 PM 40.8500 -74.2667 21° North 263 303 6,000  Level New York TRACON
Sat 03:44:45 PM 40.9167 -74.2333 14° North 260 299 6,000 313 Level New York TRACON
Sat 03:45:40 PM 40.9667 -74.2167 17° North 255 293 6,600 1,650 Climbing New York TRACON
Sat 03:46:45 PM 41.0500 -74.1833 37° Northeast 243 280 9,300 1,360 Climbing New York TRACON
Sat 03:49:03 PM 41.1844 -74.0481 75° East 286 329 11,200 1,061 Climbing Boston Center
Sat 03:50:03 PM 41.2067 -73.9356 74° East 316 364 12,800 1,550 Climbing Boston Center
Sat 03:51:03 PM 41.2356 -73.8008 75° East 333 383 14,300 1,100 Climbing Boston Center
Sat 03:52:03 PM 41.2578 -73.6881 66° East 342 394 15,000 350 Climbing Boston Center
Sat 03:53:03 PM 41.3028 -73.5536 34° Northeast 355 409 15,000  Level Boston Center
Sat 03:54:03 PM 41.3744 -73.4883 359° North 350 403 15,000  Level Boston Center
Sat 03:55:03 PM 41.4764 -73.4903 356° North 311 358 15,000 -300 Level Boston Center
Sat 03:56:03 PM 41.5578 -73.4969 357° North 316 364 14,400 -700 Descending Boston Center
Sat 03:57:03 PM 41.6533 -73.5042 359° North 321 369 13,600 -800 Descending Boston Center
Sat 03:58:03 PM 41.7369 -73.5056 358° North 321 369 12,800 -850 Descending Boston Center
Sat 03:59:03 PM 41.8325 -73.5100 358° North 321 369 11,900 -850 Descending Boston Center
Sat 04:00:03 PM 41.9056 -73.5142 354° North 302 348 11,100 -540 Descending Boston Center
Sat 04:00:43 PM 41.9700 -73.5236 358° North 291 335 11,000 -50 Descending Boston Center
Sat 04:02:02 PM 42.0825 -73.5283 354° North 304 350 11,000  Level Boston Center
Sat 04:02:57 PM 42.1553 -73.5381 349° North 293 337 11,000 -104 Level Boston Center
Sat 04:03:57 PM 42.2364 -73.5589 341° North 297 342 10,800 -626 Descending Boston Center
Sat 04:04:52 PM 42.2986 -73.5881 341° North 249 287 9,800 -1,513 Descending Boston Center
Sat 04:05:52 PM 42.3631 -73.6175 346° North 238 274 7,900 -1,884 Descending Boston Center
Sat 04:06:53 PM 42.4253 -73.6383 352° North 229 264 6,000 -1,770 Descending Boston Center
Sat 04:07:54 PM 42.4939 -73.6508 350° North 236 272 4,300 -1,438 Descending Boston Center
Sat 04:08:54 PM 42.5564 -73.6661 348° North 234 269 3,100 -605 Descending Boston Center
Sat 04:10:03 PM 42.6208 -73.6844 North 234 269 3,000 -197 Descending Boston Center
Sat 04:10:56 PM 42.6814 -73.6714 355° North 207 238 2,700 -400 Descending Boston Center
Sat 04:12:03 PM 42.7439 -73.6783 281° West 212 244 2,200 -694 Descending Boston Center
Sat 04:12:57 PM 42.7517 -73.7322 265° West 163 188 1,300 -895 Descending Boston Center
Sat 04:13:57 PM 42.7489 -73.7775 265° West 123 142 500 -800 Descending Boston Center

Login

Don't have an account? Register now (free) for customized features, flight alerts, and more!